Time,TemperatureF,DewpointF,PressureIn,WindDirection,WindDirectionDegrees,WindSpeedMPH,WindSpeedGustMPH,Humidity,HourlyPrecipIn,Conditions,Clouds,dailyrainin,SolarRadiationWatts/m^2,SoftwareType,DateUTC
2013-06-04 00:02:00,74.0,61.0,-100.00,East,89,11.0,17.0,63,0.00,,,0.00,0.000000,,2013-06-04 10:02:00,
2013-06-04 00:12:00,74.0,61.0,-100.00,East,89,11.0,17.0,63,0.00,,,0.00,0.000000,,2013-06-04 10:12:00,
2013-06-04 00:22:00,74.0,61.0,-100.00,East,89,11.0,17.0,63,0.00,,,0.00,0.000000,,2013-06-04 10:22:00,
2013-06-04 00:32:00,74.0,61.0,-100.00,East,89,11.0,17.0,63,0.00,,,0.00,0.000000,,2013-06-04 10:32:00,
2013-06-04 00:53:00,74.0,60.0,-100.00,ESE,106,7.0,18.0,62,0.00,,,0.00,0.000000,,2013-06-04 10:53:00,
2013-06-04 01:02:00,74.0,60.0,-100.00,ESE,106,7.0,18.0,62,0.00,,,0.00,0.000000,,2013-06-04 11:02:00,
2013-06-04 01:12:00,74.0,60.0,-100.00,ESE,106,7.0,18.0,62,0.00,,,0.00,0.000000,,2013-06-04 11:12:00,
2013-06-04 01:22:00,74.0,60.0,-100.00,ESE,106,7.0,18.0,62,0.00,,,0.00,0.000000,,2013-06-04 11:22:00,
2013-06-04 01:32:00,74.0,60.0,-100.00,ESE,106,7.0,18.0,62,0.00,,,0.00,0.000000,,2013-06-04 11:32:00,
2013-06-04 01:52:00,73.0,60.0,-100.00,NE,47,5.0,12.0,63,0.00,,,0.00,0.000000,,2013-06-04 11:52:00,
2013-06-04 02:02:00,73.0,60.0,-100.00,NE,47,5.0,12.0,63,0.00,,,0.00,0.000000,,2013-06-04 12:02:00,
2013-06-04 02:12:00,73.0,60.0,-100.00,NE,47,5.0,12.0,63,0.00,,,0.00,0.000000,,2013-06-04 12:12:00,
2013-06-04 02:22:00,73.0,60.0,-100.00,NE,47,5.0,12.0,63,0.00,,,0.00,0.000000,,2013-06-04 12:22:00,
2013-06-04 02:32:00,73.0,60.0,-100.00,NE,47,5.0,12.0,63,0.00,,,0.00,0.000000,,2013-06-04 12:32:00,
2013-06-04 02:52:00,72.0,59.0,-100.00,East,87,5.0,9.0,64,0.00,,,0.00,0.000000,,2013-06-04 12:52:00,
2013-06-04 03:02:00,72.0,59.0,-100.00,East,87,5.0,9.0,64,0.00,,,0.00,0.000000,,2013-06-04 13:02:00,
2013-06-04 03:12:00,72.0,59.0,-100.00,East,87,5.0,9.0,64,0.00,,,0.00,0.000000,,2013-06-04 13:12:00,
2013-06-04 03:22:00,72.0,59.0,-100.00,East,87,5.0,9.0,64,0.00,,,0.00,0.000000,,2013-06-04 13:22:00,
2013-06-04 03:32:00,72.0,59.0,-100.00,East,87,5.0,9.0,64,0.00,,,0.00,0.000000,,2013-06-04 13:32:00,
2013-06-04 04:02:00,73.0,58.0,-100.00,East,82,6.0,13.0,60,0.00,,,0.00,0.000000,,2013-06-04 14:02:00,
2013-06-04 04:12:00,73.0,58.0,-100.00,East,82,6.0,13.0,60,0.00,,,0.00,0.000000,,2013-06-04 14:12:00,
2013-06-04 04:22:00,73.0,58.0,-100.00,East,82,6.0,13.0,60,0.00,,,0.00,0.000000,,2013-06-04 14:22:00,
2013-06-04 04:32:00,73.0,58.0,-100.00,East,82,6.0,13.0,60,0.00,,,0.00,0.000000,,2013-06-04 14:32:00,
2013-06-04 04:52:00,72.0,60.0,-100.00,ENE,61,5.0,15.0,65,0.00,,,0.00,0.000000,,2013-06-04 14:52:00,
2013-06-04 05:02:00,72.0,60.0,-100.00,ENE,61,5.0,15.0,65,0.00,,,0.00,0.000000,,2013-06-04 15:02:00,
2013-06-04 05:12:00,72.0,60.0,-100.00,ENE,61,5.0,15.0,65,0.00,,,0.00,0.000000,,2013-06-04 15:12:00,
2013-06-04 05:22:00,72.0,60.0,-100.00,ENE,61,5.0,15.0,65,0.00,,,0.00,0.000000,,2013-06-04 15:22:00,
2013-06-04 05:33:00,72.0,60.0,-100.00,ENE,61,5.0,15.0,65,0.00,,,0.00,0.000000,,2013-06-04 15:33:00,
2013-06-04 05:53:00,73.0,59.0,-100.00,NE,52,4.0,12.0,62,0.00,,,0.00,0.000000,,2013-06-04 15:53:00,
2013-06-04 06:03:00,73.0,59.0,-100.00,NE,52,4.0,12.0,62,0.00,,,0.00,0.000000,,2013-06-04 16:03:00,
2013-06-04 06:12:00,73.0,59.0,-100.00,NE,52,4.0,12.0,62,0.00,,,0.00,0.000000,,2013-06-04 16:12:00,
2013-06-04 06:22:00,73.0,59.0,-100.00,NE,52,4.0,12.0,62,0.00,,,0.00,0.000000,,2013-06-04 16:22:00,
2013-06-04 06:32:00,73.0,59.0,-100.00,NE,52,4.0,12.0,62,0.00,,,0.00,0.000000,,2013-06-04 16:32:00,
2013-06-04 06:53:00,74.0,59.0,-100.00,East,87,8.0,12.0,59,0.00,,,0.00,16.000000,,2013-06-04 16:53:00,
2013-06-04 07:02:00,74.0,59.0,-100.00,East,87,8.0,12.0,59,0.00,,,0.00,16.000000,,2013-06-04 17:02:00,
2013-06-04 07:12:00,74.0,59.0,-100.00,East,87,8.0,12.0,59,0.00,,,0.00,16.000000,,2013-06-04 17:12:00,
2013-06-04 07:22:00,74.0,59.0,-100.00,East,87,8.0,12.0,59,0.00,,,0.00,16.000000,,2013-06-04 17:22:00,
2013-06-04 07:32:00,74.0,59.0,-100.00,East,87,8.0,12.0,59,0.00,,,0.00,16.000000,,2013-06-04 17:32:00,
2013-06-04 08:02:00,76.0,63.0,-100.00,NE,49,6.0,16.0,65,0.00,,,0.00,127.000000,,2013-06-04 18:02:00,
2013-06-04 08:12:00,76.0,63.0,-100.00,NE,49,6.0,16.0,65,0.00,,,0.00,127.000000,,2013-06-04 18:12:00,
2013-06-04 08:22:00,76.0,63.0,-100.00,NE,49,6.0,16.0,65,0.00,,,0.00,127.000000,,2013-06-04 18:22:00,
2013-06-04 08:32:00,76.0,63.0,-100.00,NE,49,6.0,16.0,65,0.00,,,0.00,127.000000,,2013-06-04 18:32:00,
2013-06-04 08:52:00,81.0,63.0,-100.00,ENE,76,7.0,20.0,54,0.00,,,0.00,378.000000,,2013-06-04 18:52:00,
2013-06-04 09:02:00,81.0,63.0,-100.00,ENE,76,7.0,20.0,54,0.00,,,0.00,378.000000,,2013-06-04 19:02:00,
2013-06-04 09:12:00,81.0,63.0,-100.00,ENE,76,7.0,20.0,54,0.00,,,0.00,378.000000,,2013-06-04 19:12:00,
2013-06-04 09:22:00,81.0,63.0,-100.00,ENE,76,7.0,20.0,54,0.00,,,0.00,378.000000,,2013-06-04 19:22:00,
2013-06-04 09:32:00,81.0,63.0,-100.00,ENE,76,7.0,20.0,54,0.00,,,0.00,378.000000,,2013-06-04 19:32:00,
2013-06-04 09:52:00,83.0,62.0,-100.00,East,95,15.0,22.0,50,0.00,,,0.00,702.000000,,2013-06-04 19:52:00,
2013-06-04 10:02:00,83.0,62.0,-100.00,East,95,15.0,22.0,50,0.00,,,0.00,702.000000,,2013-06-04 20:02:00,
2013-06-04 10:12:00,83.0,62.0,-100.00,East,95,15.0,22.0,50,0.00,,,0.00,702.000000,,2013-06-04 20:12:00,
2013-06-04 10:22:00,83.0,62.0,-100.00,East,95,15.0,22.0,50,0.00,,,0.00,702.000000,,2013-06-04 20:22:00,
2013-06-04 10:32:00,83.0,62.0,-100.00,East,95,15.0,22.0,50,0.00,,,0.00,702.000000,,2013-06-04 20:32:00,
2013-06-04 10:53:00,85.0,61.0,-100.00,East,87,13.0,24.0,44,0.00,,,0.00,878.000000,,2013-06-04 20:53:00,
2013-06-04 11:02:00,85.0,61.0,-100.00,East,87,13.0,24.0,44,0.00,,,0.00,878.000000,,2013-06-04 21:02:00,
2013-06-04 11:12:00,85.0,61.0,-100.00,East,87,13.0,24.0,44,0.00,,,0.00,878.000000,,2013-06-04 21:12:00,
2013-06-04 11:22:00,85.0,61.0,-100.00,East,87,13.0,24.0,44,0.00,,,0.00,878.000000,,2013-06-04 21:22:00,
2013-06-04 11:33:00,85.0,61.0,-100.00,East,87,13.0,24.0,44,0.00,,,0.00,878.000000,,2013-06-04 21:33:00,
2013-06-04 11:53:00,87.0,61.0,-100.00,East,101,14.0,25.0,42,0.00,,,0.00,1063.000000,,2013-06-04 21:53:00,
2013-06-04 12:02:00,87.0,61.0,-100.00,East,101,14.0,25.0,42,0.00,,,0.00,1063.000000,,2013-06-04 22:02:00,
2013-06-04 12:12:00,87.0,61.0,-100.00,East,101,14.0,25.0,42,0.00,,,0.00,1063.000000,,2013-06-04 22:12:00,
2013-06-04 12:22:00,87.0,61.0,-100.00,East,101,14.0,25.0,42,0.00,,,0.00,1063.000000,,2013-06-04 22:22:00,
2013-06-04 12:32:00,87.0,61.0,-100.00,East,101,14.0,25.0,42,0.00,,,0.00,1063.000000,,2013-06-04 22:32:00,
2013-06-04 12:52:00,87.0,62.0,-100.00,ESE,108,11.0,21.0,43,0.00,,,0.00,1128.000000,,2013-06-04 22:52:00,
2013-06-04 13:02:00,87.0,62.0,-100.00,ESE,108,11.0,21.0,43,0.00,,,0.00,1128.000000,,2013-06-04 23:02:00,
2013-06-04 13:12:00,87.0,62.0,-100.00,ESE,108,11.0,21.0,43,0.00,,,0.00,1128.000000,,2013-06-04 23:12:00,
2013-06-04 13:22:00,87.0,62.0,-100.00,ESE,108,11.0,21.0,43,0.00,,,0.00,1128.000000,,2013-06-04 23:22:00,
2013-06-04 13:32:00,87.0,62.0,-100.00,ESE,108,11.0,21.0,43,0.00,,,0.00,1128.000000,,2013-06-04 23:32:00,
2013-06-04 14:02:00,87.0,61.0,-100.00,ESE,107,12.0,20.0,42,0.00,,,0.00,1102.000000,,2013-06-05 00:02:00,
2013-06-04 14:12:00,87.0,61.0,-100.00,ESE,107,12.0,20.0,42,0.00,,,0.00,1102.000000,,2013-06-05 00:12:00,
2013-06-04 14:22:00,87.0,61.0,-100.00,ESE,107,12.0,20.0,42,0.00,,,0.00,1102.000000,,2013-06-05 00:22:00,
2013-06-04 14:32:00,87.0,61.0,-100.00,ESE,107,12.0,20.0,42,0.00,,,0.00,1102.000000,,2013-06-05 00:32:00,
2013-06-04 14:52:00,87.0,60.0,-100.00,ESE,106,11.0,22.0,40,0.00,,,0.00,1031.000000,,2013-06-05 00:52:00,
2013-06-04 15:02:00,87.0,60.0,-100.00,ESE,106,11.0,22.0,40,0.00,,,0.00,1031.000000,,2013-06-05 01:02:00,
2013-06-04 15:12:00,87.0,60.0,-100.00,ESE,106,11.0,22.0,40,0.00,,,0.00,1031.000000,,2013-06-05 01:12:00,
2013-06-04 15:22:00,87.0,60.0,-100.00,ESE,106,11.0,22.0,40,0.00,,,0.00,1031.000000,,2013-06-05 01:22:00,
2013-06-04 15:32:00,87.0,60.0,-100.00,ESE,106,11.0,22.0,40,0.00,,,0.00,1031.000000,,2013-06-05 01:32:00,
2013-06-04 15:52:00,87.0,62.0,-100.00,South,177,6.0,17.0,44,0.00,,,0.00,638.000000,,2013-06-05 01:52:00,
2013-06-04 16:02:00,87.0,62.0,-100.00,South,177,6.0,17.0,44,0.00,,,0.00,638.000000,,2013-06-05 02:02:00,
2013-06-04 16:12:00,87.0,62.0,-100.00,South,177,6.0,17.0,44,0.00,,,0.00,638.000000,,2013-06-05 02:12:00,
2013-06-04 16:22:00,87.0,62.0,-100.00,South,177,6.0,17.0,44,0.00,,,0.00,638.000000,,2013-06-05 02:22:00,
2013-06-04 16:32:00,87.0,62.0,-100.00,South,177,6.0,17.0,44,0.00,,,0.00,638.000000,,2013-06-05 02:32:00,
2013-06-04 16:52:00,88.0,64.0,-100.00,West,274,9.0,24.0,45,0.00,,,0.00,536.000000,,2013-06-05 02:52:00,
2013-06-04 17:02:00,88.0,64.0,-100.00,West,274,9.0,24.0,45,0.00,,,0.00,536.000000,,2013-06-05 03:02:00,
2013-06-04 17:12:00,88.0,64.0,-100.00,West,274,9.0,24.0,45,0.00,,,0.00,536.000000,,2013-06-05 03:12:00,
2013-06-04 17:22:00,88.0,64.0,-100.00,West,274,9.0,24.0,45,0.00,,,0.00,536.000000,,2013-06-05 03:22:00,
2013-06-04 17:32:00,88.0,64.0,-100.00,West,274,9.0,24.0,45,0.00,,,0.00,536.000000,,2013-06-05 03:32:00,
2013-06-04 17:53:00,85.0,63.0,-100.00,West,261,9.0,17.0,48,0.00,,,0.00,433.000000,,2013-06-05 03:53:00,
2013-06-04 18:02:00,85.0,63.0,-100.00,West,261,9.0,17.0,48,0.00,,,0.00,433.000000,,2013-06-05 04:02:00,
2013-06-04 18:13:00,85.0,63.0,-100.00,West,261,9.0,17.0,48,0.00,,,0.00,433.000000,,2013-06-05 04:13:00,
2013-06-04 18:22:00,85.0,63.0,-100.00,West,261,9.0,17.0,48,0.00,,,0.00,433.000000,,2013-06-05 04:22:00,
2013-06-04 18:32:00,85.0,63.0,-100.00,West,261,9.0,17.0,48,0.00,,,0.00,433.000000,,2013-06-05 04:32:00,
2013-06-04 18:53:00,81.0,63.0,-100.00,SSW,205,9.0,13.0,55,0.00,,,0.00,214.000000,,2013-06-05 04:53:00,
2013-06-04 19:02:00,81.0,63.0,-100.00,SSW,205,9.0,13.0,55,0.00,,,0.00,214.000000,,2013-06-05 05:02:00,
2013-06-04 19:12:00,81.0,63.0,-100.00,SSW,205,9.0,13.0,55,0.00,,,0.00,214.000000,,2013-06-05 05:12:00,
2013-06-04 19:22:00,81.0,63.0,-100.00,SSW,205,9.0,13.0,55,0.00,,,0.00,214.000000,,2013-06-05 05:22:00,
2013-06-04 19:32:00,81.0,63.0,-100.00,SSW,205,9.0,13.0,55,0.00,,,0.00,214.000000,,2013-06-05 05:32:00,
2013-06-04 19:52:00,77.0,65.0,-100.00,SSW,198,3.0,11.0,66,0.00,,,0.00,23.000000,,2013-06-05 05:52:00,
2013-06-04 20:02:00,77.0,65.0,-100.00,SSW,198,3.0,11.0,66,0.00,,,0.00,23.000000,,2013-06-05 06:02:00,
2013-06-04 20:12:00,77.0,65.0,-100.00,SSW,198,3.0,11.0,66,0.00,,,0.00,23.000000,,2013-06-05 06:12:00,
2013-06-04 20:22:00,77.0,65.0,-100.00,SSW,198,3.0,11.0,66,0.00,,,0.00,23.000000,,2013-06-05 06:22:00,
2013-06-04 20:32:00,77.0,65.0,-100.00,SSW,198,3.0,11.0,66,0.00,,,0.00,23.000000,,2013-06-05 06:32:00,
2013-06-04 20:52:00,75.0,61.0,-100.00,NE,47,2.0,6.0,62,0.00,,,0.00,0.000000,,2013-06-05 06:52:00,
2013-06-04 21:02:00,75.0,61.0,-100.00,NE,47,2.0,6.0,62,0.00,,,0.00,0.000000,,2013-06-05 07:02:00,
2013-06-04 21:12:00,75.0,61.0,-100.00,NE,47,2.0,6.0,62,0.00,,,0.00,0.000000,,2013-06-05 07:12:00,
2013-06-04 21:22:00,75.0,61.0,-100.00,NE,47,2.0,6.0,62,0.00,,,0.00,0.000000,,2013-06-05 07:22:00,
2013-06-04 21:32:00,75.0,61.0,-100.00,NE,47,2.0,6.0,62,0.00,,,0.00,0.000000,,2013-06-05 07:32:00,
2013-06-04 22:02:00,74.0,61.0,-100.00,North,10,2.0,6.0,64,0.00,,,0.00,0.000000,,2013-06-05 08:02:00,
2013-06-04 22:12:00,74.0,61.0,-100.00,North,10,2.0,6.0,64,0.00,,,0.00,0.000000,,2013-06-05 08:12:00,
2013-06-04 22:22:00,74.0,61.0,-100.00,North,10,2.0,6.0,64,0.00,,,0.00,0.000000,,2013-06-05 08:22:00,
2013-06-04 22:32:00,74.0,61.0,-100.00,North,10,2.0,6.0,64,0.00,,,0.00,0.000000,,2013-06-05 08:32:00,
2013-06-04 22:52:00,74.0,61.0,-100.00,NNE,14,3.0,6.0,65,0.00,,,-99.99,0.000000,,2013-06-05 08:52:00,
2013-06-04 23:02:00,74.0,61.0,-100.00,NNE,14,3.0,6.0,65,0.00,,,-99.99,0.000000,,2013-06-05 09:02:00,
2013-06-04 23:12:00,74.0,61.0,-100.00,NNE,14,3.0,6.0,65,0.00,,,-99.99,0.000000,,2013-06-05 09:12:00,
2013-06-04 23:22:00,74.0,61.0,-100.00,NNE,14,3.0,6.0,65,0.00,,,-99.99,0.000000,,2013-06-05 09:22:00,
2013-06-04 23:32:00,74.0,61.0,-100.00,NNE,14,3.0,6.0,65,0.00,,,-99.99,0.000000,,2013-06-05 09:32:00,
2013-06-04 23:53:00,72.0,60.0,-100.00,NW,315,3.0,6.0,65,0.00,,,0.00,0.000000,,2013-06-05 09:53:00,